createdAt,value
2023-12-27T00:00:30.418Z,4.80
2023-12-27T00:02:33.273Z,4.80
2023-12-27T00:04:36.310Z,4.80
2023-12-27T00:06:39.052Z,4.70
2023-12-27T00:08:41.704Z,4.70
2023-12-27T00:10:44.285Z,4.70
2023-12-27T00:12:47.091Z,4.70
2023-12-27T00:14:49.757Z,4.70
2023-12-27T00:16:52.344Z,4.70
2023-12-27T00:18:55.080Z,4.70
2023-12-27T00:20:57.883Z,4.70
2023-12-27T00:23:00.651Z,4.80
2023-12-27T00:25:03.440Z,4.90
2023-12-27T00:27:06.040Z,4.90
2023-12-27T00:29:08.864Z,4.90
2023-12-27T00:31:11.552Z,4.90
2023-12-27T00:33:14.533Z,4.90
2023-12-27T00:35:17.481Z,4.90
2023-12-27T00:37:20.154Z,4.80
2023-12-27T00:39:24.672Z,4.70
2023-12-27T00:41:27.336Z,4.60
2023-12-27T00:43:30.126Z,4.70
2023-12-27T00:45:32.860Z,4.70
2023-12-27T00:47:35.620Z,4.80
2023-12-27T00:49:38.459Z,4.80
2023-12-27T00:51:41.057Z,4.80
2023-12-27T00:53:43.759Z,4.80
2023-12-27T00:55:46.485Z,4.80
2023-12-27T00:57:49.518Z,4.80
2023-12-27T00:59:52.499Z,4.80
2023-12-27T01:01:55.202Z,4.90
2023-12-27T01:03:58.089Z,4.80
2023-12-27T01:06:00.739Z,4.70
2023-12-27T01:08:03.707Z,4.70
2023-12-27T01:10:07.245Z,4.80
2023-12-27T01:12:11.281Z,4.80
2023-12-27T01:14:13.967Z,4.80
2023-12-27T01:16:16.642Z,4.80
2023-12-27T01:18:19.944Z,4.80
2023-12-27T01:20:22.649Z,4.70
2023-12-27T01:22:25.512Z,4.70
2023-12-27T01:24:28.196Z,4.70
2023-12-27T01:26:30.892Z,4.60
2023-12-27T01:28:33.460Z,4.60
2023-12-27T01:30:36.715Z,4.60
2023-12-27T01:32:40.047Z,4.50
2023-12-27T01:34:42.778Z,4.40
2023-12-27T01:36:45.658Z,4.40
2023-12-27T01:38:48.323Z,4.40
2023-12-27T01:40:51.215Z,4.40
2023-12-27T01:42:53.868Z,4.40
2023-12-27T01:44:56.715Z,4.40
2023-12-27T01:46:59.448Z,4.30
2023-12-27T01:49:02.306Z,4.30
2023-12-27T01:51:05.822Z,4.30
2023-12-27T01:55:32.865Z,4.30
2023-12-27T01:57:35.577Z,4.20
2023-12-27T01:59:38.301Z,4.20
2023-12-27T02:01:40.952Z,4.10
2023-12-27T02:03:43.717Z,4.10
2023-12-27T02:05:47.121Z,4.00
2023-12-27T02:07:50.059Z,4.00
2023-12-27T02:09:52.988Z,4.00
2023-12-27T02:11:55.665Z,3.90
2023-12-27T02:13:59.276Z,4.20
2023-12-27T02:16:10.761Z,3.90
2023-12-27T02:18:13.768Z,3.90
2023-12-27T02:20:17.238Z,3.90
2023-12-27T02:22:21.366Z,3.80
2023-12-27T02:24:25.912Z,3.80
2023-12-27T02:26:28.564Z,3.80
2023-12-27T02:28:31.242Z,3.80
2023-12-27T02:30:35.788Z,3.80
2023-12-27T02:32:39.022Z,3.80
2023-12-27T02:34:41.913Z,3.80
2023-12-27T02:36:44.697Z,3.80
2023-12-27T02:38:47.225Z,3.80
2023-12-27T02:40:49.884Z,3.70
2023-12-27T02:42:52.558Z,3.70
2023-12-27T02:44:55.167Z,3.70
2023-12-27T02:47:00.985Z,3.70
2023-12-27T02:49:03.631Z,3.70
2023-12-27T02:51:07.736Z,3.70
2023-12-27T02:53:10.313Z,3.60
2023-12-27T02:55:12.959Z,3.60
2023-12-27T02:57:15.632Z,3.60
2023-12-27T02:59:18.337Z,3.60
2023-12-27T03:01:21.045Z,3.60
2023-12-27T03:03:23.569Z,3.60
2023-12-27T03:05:26.399Z,3.50
2023-12-27T03:07:29.170Z,3.60
2023-12-27T03:09:31.833Z,3.50
2023-12-27T03:11:34.496Z,3.50
2023-12-27T03:13:37.390Z,3.50
2023-12-27T03:15:40.346Z,3.60
2023-12-27T03:17:43.059Z,3.50
2023-12-27T03:19:46.308Z,3.60
2023-12-27T03:21:48.950Z,3.60
2023-12-27T03:23:51.581Z,3.60
2023-12-27T03:25:55.191Z,3.60
2023-12-27T03:27:58.516Z,3.60
2023-12-27T03:30:01.324Z,3.50
2023-12-27T03:32:04.352Z,3.60
2023-12-27T03:34:07.051Z,3.60
2023-12-27T03:36:09.860Z,3.60
2023-12-27T03:38:12.512Z,3.50
2023-12-27T03:40:15.243Z,3.50
2023-12-27T03:42:19.716Z,3.60
2023-12-27T03:44:22.457Z,3.60
2023-12-27T03:46:26.649Z,3.60
2023-12-27T03:48:29.471Z,3.70
2023-12-27T03:50:32.247Z,3.70
2023-12-27T03:52:35.051Z,3.70
2023-12-27T03:54:38.565Z,3.70
2023-12-27T03:56:44.928Z,3.70
2023-12-27T03:58:47.572Z,3.70
2023-12-27T04:00:50.324Z,3.70
2023-12-27T04:02:53.141Z,3.70
2023-12-27T04:04:55.872Z,3.60
2023-12-27T04:06:58.573Z,3.60
2023-12-27T04:09:01.517Z,3.70
2023-12-27T04:11:04.397Z,3.60
2023-12-27T04:13:07.175Z,3.60
2023-12-27T04:15:10.486Z,3.60
2023-12-27T04:17:14.664Z,3.70
2023-12-27T04:19:17.695Z,3.60
2023-12-27T04:21:20.972Z,3.60
2023-12-27T04:23:23.805Z,3.50
2023-12-27T04:25:26.456Z,3.50
2023-12-27T04:27:29.275Z,3.50
2023-12-27T04:29:32.097Z,3.50
2023-12-27T04:31:35.245Z,3.40
2023-12-27T04:33:38.176Z,3.40
2023-12-27T04:35:40.951Z,3.50
2023-12-27T04:37:53.555Z,3.40
2023-12-27T04:39:58.023Z,3.50
2023-12-27T04:42:01.386Z,3.40
2023-12-27T04:44:04.477Z,3.50
2023-12-27T04:46:07.620Z,3.40
2023-12-27T04:48:10.468Z,3.40
2023-12-27T04:50:13.747Z,3.40
2023-12-27T04:52:17.360Z,3.40
2023-12-27T04:54:20.093Z,3.30
2023-12-27T04:56:23.162Z,3.40
2023-12-27T04:58:25.825Z,3.40
2023-12-27T05:00:28.523Z,3.40
2023-12-27T05:02:31.392Z,3.40
2023-12-27T05:04:34.219Z,3.30
2023-12-27T05:06:36.955Z,3.20
2023-12-27T05:08:41.316Z,3.10
2023-12-27T05:10:44.002Z,3.10
2023-12-27T05:12:46.920Z,3.10
2023-12-27T05:14:49.488Z,3.10
2023-12-27T05:16:53.860Z,3.10
2023-12-27T05:18:56.654Z,3.20
2023-12-27T05:21:01.285Z,3.30
2023-12-27T05:23:04.218Z,3.40
2023-12-27T05:25:07.563Z,3.50
2023-12-27T05:27:10.214Z,3.50
2023-12-27T05:29:12.981Z,3.60
2023-12-27T05:31:15.633Z,3.70
2023-12-27T05:33:18.385Z,3.80
2023-12-27T05:35:21.025Z,3.80
2023-12-27T05:37:23.664Z,3.80
2023-12-27T05:39:26.879Z,3.90
2023-12-27T05:41:29.542Z,3.90
2023-12-27T05:43:32.213Z,3.90
2023-12-27T05:45:34.859Z,3.90
2023-12-27T05:47:37.644Z,3.90
2023-12-27T05:49:40.327Z,3.90
2023-12-27T05:51:43.162Z,3.90
2023-12-27T05:53:45.770Z,4.00
2023-12-27T05:55:48.326Z,4.00
2023-12-27T05:57:51.035Z,4.00
2023-12-27T05:59:53.869Z,4.10
2023-12-27T06:01:56.448Z,4.10
2023-12-27T06:04:00.166Z,4.10
2023-12-27T06:06:03.142Z,4.20
2023-12-27T06:08:06.142Z,4.20
2023-12-27T06:10:09.317Z,4.30
2023-12-27T06:12:11.936Z,4.30
2023-12-27T06:14:14.699Z,4.30
2023-12-27T06:16:17.251Z,4.30
2023-12-27T06:18:20.293Z,4.30
2023-12-27T06:20:22.974Z,4.40
2023-12-27T06:22:25.781Z,4.40
2023-12-27T06:24:28.299Z,4.40
2023-12-27T06:26:31.183Z,4.40
2023-12-27T06:28:33.832Z,4.40
2023-12-27T06:30:37.114Z,4.40
2023-12-27T06:32:39.788Z,4.40
2023-12-27T06:34:42.487Z,4.50
2023-12-27T06:36:45.216Z,4.50
2023-12-27T06:38:47.744Z,4.50
2023-12-27T06:40:50.320Z,4.50
2023-12-27T06:42:52.900Z,4.50
2023-12-27T06:44:55.970Z,4.50
2023-12-27T06:46:58.545Z,4.50
2023-12-27T06:49:01.564Z,4.60
2023-12-27T06:51:06.042Z,4.50
2023-12-27T06:53:08.815Z,4.60
2023-12-27T06:55:11.386Z,4.60
2023-12-27T06:57:13.968Z,4.60
2023-12-27T06:59:16.594Z,4.70
2023-12-27T07:01:19.296Z,4.70
2023-12-27T07:03:22.011Z,4.70
2023-12-27T07:05:24.774Z,4.70
2023-12-27T07:07:27.602Z,4.70
2023-12-27T07:09:30.308Z,4.80
2023-12-27T07:11:32.867Z,4.90
2023-12-27T07:13:35.428Z,4.90
2023-12-27T07:15:38.095Z,4.90
2023-12-27T07:17:40.827Z,4.90
2023-12-27T07:19:43.516Z,5.00
2023-12-27T07:21:46.717Z,5.00
2023-12-27T07:23:49.729Z,5.00
2023-12-27T07:25:53.255Z,5.00
2023-12-27T07:27:56.284Z,5.00
2023-12-27T07:29:59.363Z,5.00
2023-12-27T07:32:02.099Z,5.00
2023-12-27T07:34:04.915Z,5.00
2023-12-27T07:36:07.974Z,5.10
2023-12-27T07:38:10.607Z,5.10
2023-12-27T07:40:15.349Z,5.10
2023-12-27T07:42:17.920Z,5.10
2023-12-27T07:44:21.470Z,5.20
2023-12-27T07:46:24.038Z,5.20
2023-12-27T07:48:26.823Z,5.20
2023-12-27T07:50:29.529Z,5.30
2023-12-27T07:52:33.284Z,5.40
2023-12-27T07:54:37.309Z,5.40
2023-12-27T07:56:39.851Z,5.50
2023-12-27T07:58:42.471Z,5.50
2023-12-27T08:00:45.103Z,5.50
2023-12-27T08:02:47.702Z,5.50
2023-12-27T08:07:07.709Z,5.60
2023-12-27T08:09:12.089Z,5.70
2023-12-27T08:11:14.645Z,5.70
2023-12-27T08:13:17.234Z,5.70
2023-12-27T08:15:20.019Z,5.80
2023-12-27T08:17:22.875Z,5.80
2023-12-27T08:19:25.558Z,5.80
2023-12-27T08:21:28.154Z,5.90
2023-12-27T08:23:31.086Z,5.90
2023-12-27T08:25:35.155Z,6.00
2023-12-27T08:27:37.753Z,6.00
2023-12-27T08:29:41.865Z,6.00
2023-12-27T08:31:46.990Z,6.10
2023-12-27T08:36:06.485Z,6.10
2023-12-27T08:38:09.470Z,6.10
2023-12-27T08:40:12.128Z,6.10
2023-12-27T08:42:14.807Z,6.10
2023-12-27T08:44:17.330Z,6.20
2023-12-27T08:46:20.716Z,6.20
2023-12-27T08:48:23.672Z,6.20
2023-12-27T08:50:26.315Z,6.20
2023-12-27T08:52:28.872Z,6.20
2023-12-27T08:54:31.490Z,6.20
2023-12-27T08:56:34.015Z,6.30
2023-12-27T08:58:36.575Z,6.30
2023-12-27T09:00:39.264Z,6.30
2023-12-27T09:02:41.917Z,6.30
2023-12-27T09:04:44.772Z,6.40
2023-12-27T09:06:47.420Z,6.40
2023-12-27T09:08:50.040Z,6.40
2023-12-27T09:10:52.802Z,6.50
2023-12-27T09:12:55.313Z,6.50
2023-12-27T09:14:57.891Z,6.60
2023-12-27T09:17:00.425Z,6.60
2023-12-27T09:19:03.490Z,6.70
2023-12-27T09:21:08.008Z,6.70
2023-12-27T09:23:10.575Z,6.80
2023-12-27T09:25:13.311Z,6.80
2023-12-27T09:27:18.015Z,6.90
2023-12-27T09:29:20.571Z,7.00
2023-12-27T09:31:24.996Z,6.90
2023-12-27T09:33:27.841Z,7.10
2023-12-27T09:35:30.565Z,7.10
2023-12-27T09:37:33.288Z,7.10
2023-12-27T09:39:36.336Z,7.20
2023-12-27T09:41:39.620Z,7.20
2023-12-27T09:43:43.060Z,7.30
2023-12-27T09:45:46.287Z,7.30
2023-12-27T09:47:52.576Z,7.40
2023-12-27T09:49:56.205Z,7.50
2023-12-27T09:51:59.524Z,7.50
2023-12-27T09:54:02.269Z,7.50
2023-12-27T09:58:22.358Z,7.60
2023-12-27T10:00:26.688Z,7.70
2023-12-27T10:02:29.697Z,7.70
2023-12-27T10:04:34.773Z,7.80
2023-12-27T10:06:39.325Z,7.90
2023-12-27T10:08:41.941Z,7.90
2023-12-27T10:10:45.992Z,8.00
2023-12-27T10:12:50.159Z,8.00
2023-12-27T10:14:53.662Z,8.10
2023-12-27T10:16:57.795Z,8.10
2023-12-27T10:19:00.935Z,8.20
2023-12-27T10:21:04.798Z,8.80
2023-12-27T10:23:08.558Z,8.30
2023-12-27T10:25:12.605Z,8.40
2023-12-27T10:27:18.345Z,8.40
2023-12-27T10:29:22.332Z,8.50
2023-12-27T10:31:25.396Z,8.50
2023-12-27T10:33:30.959Z,8.60
2023-12-27T10:35:33.122Z,8.70
2023-12-27T10:37:37.817Z,8.70
2023-12-27T10:39:44.786Z,6.70
2023-12-27T10:42:05.838Z,8.70
2023-12-27T10:44:10.594Z,8.80
2023-12-27T10:46:14.198Z,8.80
2023-12-27T10:48:17.356Z,8.80
2023-12-27T10:50:20.792Z,8.80
2023-12-27T10:52:24.277Z,8.80
2023-12-27T10:54:27.487Z,8.90
2023-12-27T10:56:31.957Z,7.30
2023-12-27T10:58:35.459Z,8.90
2023-12-27T11:00:38.654Z,9.00
2023-12-27T11:02:41.366Z,8.90
2023-12-27T11:04:46.129Z,9.00
2023-12-27T11:06:49.357Z,9.00
2023-12-27T11:08:52.835Z,9.00
2023-12-27T11:10:55.449Z,9.00
2023-12-27T11:12:59.600Z,9.00
2023-12-27T11:15:04.574Z,9.00
2023-12-27T11:17:08.448Z,9.00
2023-12-27T11:19:11.282Z,8.90
2023-12-27T11:21:15.768Z,9.00
2023-12-27T11:23:18.594Z,9.10
2023-12-27T11:25:21.370Z,9.00
2023-12-27T11:27:23.951Z,9.10
2023-12-27T11:29:27.192Z,9.30
2023-12-27T11:31:30.093Z,9.10
2023-12-27T11:33:34.841Z,9.10
2023-12-27T11:35:38.476Z,9.10
2023-12-27T11:37:42.294Z,9.10
2023-12-27T11:39:48.842Z,9.10
2023-12-27T11:41:52.468Z,9.10
2023-12-27T11:43:57.564Z,9.10
2023-12-27T11:46:01.670Z,9.10
2023-12-27T11:48:05.128Z,9.20
2023-12-27T11:50:19.843Z,9.10
2023-12-27T11:52:25.102Z,9.10
2023-12-27T11:54:27.764Z,9.10
2023-12-27T11:56:31.052Z,9.10
2023-12-27T11:58:36.284Z,9.10
2023-12-27T12:00:39.198Z,9.10
2023-12-27T12:02:44.210Z,9.20
2023-12-27T12:04:50.400Z,9.10
2023-12-27T12:07:10.623Z,9.10
2023-12-27T12:09:13.406Z,9.00
2023-12-27T12:11:16.538Z,9.20
2023-12-27T12:13:19.477Z,9.20
2023-12-27T12:15:23.304Z,9.20
2023-12-27T12:17:27.125Z,9.20
2023-12-27T12:19:31.317Z,9.20
2023-12-27T12:21:34.723Z,9.20
2023-12-27T12:23:37.402Z,9.30
2023-12-27T12:25:42.731Z,9.30
2023-12-27T12:27:49.685Z,9.30
2023-12-27T12:32:11.230Z,9.30
2023-12-27T12:34:14.900Z,9.30
2023-12-27T12:36:18.636Z,8.70
2023-12-27T12:38:22.133Z,9.30
2023-12-27T12:40:24.845Z,9.40
2023-12-27T12:42:27.608Z,9.40
2023-12-27T12:44:31.961Z,9.30
2023-12-27T12:46:34.617Z,9.40
2023-12-27T12:48:39.887Z,9.40
2023-12-27T12:50:42.637Z,9.40
2023-12-27T12:52:46.523Z,9.40
2023-12-27T12:54:49.181Z,9.40
2023-12-27T12:56:52.053Z,9.40
2023-12-27T12:58:59.949Z,9.40
2023-12-27T13:01:03.962Z,9.40
2023-12-27T13:03:08.801Z,9.40
2023-12-27T13:05:13.199Z,9.40
2023-12-27T13:07:16.067Z,9.40
2023-12-27T13:09:18.675Z,9.40
2023-12-27T13:11:23.557Z,9.40
2023-12-27T13:13:26.713Z,9.40
2023-12-27T13:15:29.834Z,9.40
2023-12-27T13:17:32.560Z,9.50
2023-12-27T13:19:35.643Z,9.50
2023-12-27T13:21:38.374Z,9.50
2023-12-27T13:23:40.960Z,9.50
2023-12-27T13:25:43.523Z,9.50
2023-12-27T13:27:53.363Z,9.50
2023-12-27T13:29:51.045Z,9.60
2023-12-27T13:31:54.108Z,9.60
2023-12-27T13:33:57.171Z,9.50
2023-12-27T13:36:00.172Z,9.50
2023-12-27T13:38:03.369Z,9.50
2023-12-27T13:40:07.577Z,9.60
2023-12-27T13:42:10.613Z,9.60
2023-12-27T13:44:13.649Z,9.60
2023-12-27T13:46:16.342Z,9.70
2023-12-27T13:48:22.106Z,9.60
2023-12-27T13:50:23.555Z,9.70
2023-12-27T13:52:26.224Z,9.70
2023-12-27T13:54:31.593Z,9.70
2023-12-27T13:56:33.864Z,9.70
2023-12-27T13:58:36.654Z,9.80
2023-12-27T14:00:39.611Z,9.70
2023-12-27T14:02:42.332Z,9.70
2023-12-27T14:04:46.984Z,9.70
2023-12-27T14:06:50.042Z,9.70
2023-12-27T14:08:52.776Z,9.60
2023-12-27T14:10:55.681Z,9.60
2023-12-27T14:12:58.368Z,9.70
2023-12-27T14:15:01.491Z,9.70
2023-12-27T14:19:20.924Z,9.70
2023-12-27T14:21:24.760Z,9.70
2023-12-27T14:23:28.022Z,9.70
2023-12-27T14:25:33.435Z,9.80
2023-12-27T14:27:38.146Z,9.80
2023-12-27T14:29:41.417Z,9.80
2023-12-27T14:31:44.367Z,9.80
2023-12-27T14:33:47.132Z,9.70
2023-12-27T14:35:50.241Z,9.70
2023-12-27T14:37:54.615Z,9.70
2023-12-27T14:39:57.226Z,9.70
2023-12-27T14:41:59.897Z,9.70
2023-12-27T14:44:04.594Z,9.70
2023-12-27T14:46:08.701Z,9.70
2023-12-27T14:48:11.941Z,9.70
2023-12-27T14:50:14.777Z,9.60
2023-12-27T14:52:17.513Z,9.60
2023-12-27T14:54:20.098Z,9.60
2023-12-27T14:56:22.763Z,9.60
2023-12-27T14:58:25.373Z,9.50
2023-12-27T15:00:28.502Z,9.50
2023-12-27T15:02:31.219Z,9.50
2023-12-27T15:04:34.284Z,9.50
2023-12-27T15:06:37.774Z,9.50
2023-12-27T15:08:40.698Z,9.50
2023-12-27T15:10:43.883Z,9.40
2023-12-27T15:12:47.818Z,9.40
2023-12-27T15:14:50.506Z,9.40
2023-12-27T15:16:54.768Z,9.40
2023-12-27T15:18:58.324Z,9.40
2023-12-27T15:21:00.986Z,9.40
2023-12-27T15:23:04.734Z,9.50
2023-12-27T15:25:08.122Z,9.50
2023-12-27T15:27:11.234Z,9.50
2023-12-27T15:29:13.791Z,9.40
2023-12-27T15:31:19.850Z,9.40
2023-12-27T15:33:22.705Z,9.40
2023-12-27T15:35:26.073Z,9.40
2023-12-27T15:37:28.821Z,9.40
2023-12-27T15:39:32.922Z,9.40
2023-12-27T15:41:36.236Z,9.40
2023-12-27T15:43:40.545Z,9.50
2023-12-27T15:45:43.324Z,9.50
2023-12-27T15:47:48.964Z,9.40
2023-12-27T15:49:58.490Z,9.50
2023-12-27T15:52:01.768Z,9.50
2023-12-27T15:54:06.001Z,9.40
2023-12-27T15:56:09.480Z,9.40
2023-12-27T15:58:12.082Z,9.40
2023-12-27T16:00:15.578Z,9.40
2023-12-27T16:02:18.214Z,9.40
2023-12-27T16:04:20.902Z,9.40
2023-12-27T16:06:24.506Z,9.30
2023-12-27T16:08:27.455Z,9.40
2023-12-27T16:10:30.359Z,9.30
2023-12-27T16:12:33.254Z,9.40
2023-12-27T16:14:38.048Z,9.40
2023-12-27T16:16:41.663Z,9.40
2023-12-27T16:18:44.850Z,9.30
2023-12-27T16:20:55.854Z,9.30
2023-12-27T16:22:59.745Z,9.30
2023-12-27T16:25:02.689Z,9.30
2023-12-27T16:27:05.767Z,9.20
2023-12-27T16:29:08.532Z,9.30
2023-12-27T16:31:11.297Z,9.20
2023-12-27T16:33:14.045Z,9.20
2023-12-27T16:35:18.473Z,9.20
2023-12-27T16:37:21.196Z,9.20
2023-12-27T16:39:51.173Z,9.20
2023-12-27T16:41:53.693Z,9.20
2023-12-27T16:43:57.777Z,9.20
2023-12-27T16:46:02.459Z,9.10
2023-12-27T16:48:06.314Z,9.10
2023-12-27T16:50:09.850Z,9.10
2023-12-27T16:52:12.403Z,9.00
2023-12-27T16:54:15.812Z,9.00
2023-12-27T16:56:18.720Z,9.10
2023-12-27T16:58:21.743Z,9.00
2023-12-27T17:00:24.533Z,9.00
2023-12-27T17:02:27.040Z,9.00
2023-12-27T17:04:30.888Z,9.00
2023-12-27T17:06:33.726Z,9.10
2023-12-27T17:08:36.253Z,9.00
2023-12-27T17:10:39.590Z,9.00
2023-12-27T17:12:43.980Z,9.10
2023-12-27T17:14:46.559Z,9.00
2023-12-27T17:16:49.203Z,9.00
2023-12-27T17:18:51.854Z,9.00
2023-12-27T17:20:54.550Z,9.00
2023-12-27T17:22:57.225Z,9.00
2023-12-27T17:25:00.062Z,9.00
2023-12-27T17:27:02.612Z,9.00
2023-12-27T17:29:06.952Z,9.00
2023-12-27T17:31:09.712Z,9.00
2023-12-27T17:33:12.611Z,9.00
2023-12-27T17:35:15.307Z,9.00
2023-12-27T17:37:17.913Z,9.00
2023-12-27T17:39:22.124Z,8.90
2023-12-27T17:41:24.894Z,8.90
2023-12-27T17:43:27.800Z,8.90
2023-12-27T17:45:31.114Z,8.90
2023-12-27T17:47:33.847Z,8.90
2023-12-27T17:49:36.565Z,8.90
2023-12-27T17:51:39.402Z,8.90
2023-12-27T17:53:42.904Z,8.90
2023-12-27T17:55:47.272Z,8.90
2023-12-27T17:57:49.846Z,9.00
2023-12-27T17:59:52.591Z,9.00
2023-12-27T18:01:55.208Z,9.10
2023-12-27T18:03:57.859Z,9.00
2023-12-27T18:06:00.413Z,9.00
2023-12-27T18:08:03.350Z,9.00
2023-12-27T18:10:07.302Z,8.90
2023-12-27T18:12:10.038Z,8.90
2023-12-27T18:14:12.803Z,9.10
2023-12-27T18:16:15.427Z,9.10
2023-12-27T18:18:18.461Z,9.10
2023-12-27T18:20:21.787Z,9.10
2023-12-27T18:22:24.462Z,9.10
2023-12-27T18:24:28.653Z,9.00
2023-12-27T18:26:39.179Z,9.00
2023-12-27T18:28:40.271Z,9.10
2023-12-27T18:30:42.952Z,9.10
2023-12-27T18:32:45.743Z,9.10
2023-12-27T18:34:48.458Z,9.00
2023-12-27T18:36:51.129Z,9.00
2023-12-27T18:38:53.731Z,9.00
2023-12-27T18:40:56.539Z,9.10
2023-12-27T18:42:59.701Z,9.20
2023-12-27T18:45:03.541Z,9.20
2023-12-27T18:47:06.321Z,9.20
2023-12-27T18:49:09.384Z,9.20
2023-12-27T18:51:13.866Z,9.10
2023-12-27T18:53:18.812Z,9.10
2023-12-27T18:55:21.024Z,9.10
2023-12-27T18:57:25.113Z,9.20
2023-12-27T18:59:27.801Z,9.20
2023-12-27T19:01:30.377Z,9.20
2023-12-27T19:03:33.165Z,9.20
2023-12-27T19:05:37.673Z,9.20
2023-12-27T19:07:40.574Z,9.20
2023-12-27T19:09:43.279Z,9.20
2023-12-27T19:11:46.119Z,9.20
2023-12-27T19:13:50.156Z,9.20
2023-12-27T19:15:52.896Z,9.30
2023-12-27T19:17:55.685Z,9.20
2023-12-27T19:19:59.540Z,9.20
2023-12-27T19:22:02.213Z,9.30
2023-12-27T19:24:06.491Z,9.40
2023-12-27T19:26:12.795Z,9.40
2023-12-27T19:28:15.351Z,9.50
2023-12-27T19:30:18.140Z,9.50
2023-12-27T19:32:20.767Z,9.50
2023-12-27T19:34:23.672Z,9.50
2023-12-27T19:36:26.847Z,9.70
2023-12-27T19:38:31.505Z,9.70
2023-12-27T19:40:34.435Z,9.80
2023-12-27T19:42:37.061Z,9.80
2023-12-27T19:44:42.050Z,9.90
2023-12-27T19:46:44.989Z,9.80
2023-12-27T19:48:47.704Z,9.90
2023-12-27T19:50:51.349Z,9.90
2023-12-27T19:52:53.973Z,9.90
2023-12-27T19:54:56.653Z,9.90
2023-12-27T19:57:04.781Z,10.00
2023-12-27T19:59:11.682Z,10.10
2023-12-27T20:01:18.072Z,10.00
2023-12-27T20:03:21.322Z,9.90
2023-12-27T20:05:24.257Z,9.90
2023-12-27T20:07:27.282Z,9.90
2023-12-27T20:09:30.120Z,9.90
2023-12-27T20:11:33.415Z,9.80
2023-12-27T20:13:36.104Z,9.90
2023-12-27T20:17:44.728Z,9.90
2023-12-27T20:19:48.121Z,9.70
2023-12-27T20:21:52.421Z,9.60
2023-12-27T20:23:55.285Z,9.60
2023-12-27T20:25:58.184Z,9.60
2023-12-27T20:28:01.074Z,9.70
2023-12-27T20:30:04.951Z,9.70
2023-12-27T20:32:08.080Z,9.80
2023-12-27T20:34:11.399Z,9.80
2023-12-27T20:36:14.132Z,9.80
2023-12-27T20:38:16.851Z,9.80
2023-12-27T20:40:20.425Z,9.70
2023-12-27T20:42:23.181Z,9.90
2023-12-27T20:44:26.131Z,9.90
2023-12-27T20:46:28.897Z,9.90
2023-12-27T20:48:31.718Z,10.00
2023-12-27T20:50:34.477Z,10.00
2023-12-27T20:52:37.264Z,10.10
2023-12-27T20:54:40.336Z,10.00
2023-12-27T20:56:45.548Z,10.00
2023-12-27T20:58:48.407Z,10.00
2023-12-27T21:00:51.179Z,10.00
2023-12-27T21:02:53.829Z,9.90
2023-12-27T21:04:56.572Z,9.90
2023-12-27T21:07:00.186Z,9.90
2023-12-27T21:09:03.640Z,9.90
2023-12-27T21:11:06.205Z,9.80
2023-12-27T21:13:08.772Z,9.90
2023-12-27T21:15:11.843Z,10.00
2023-12-27T21:17:14.748Z,9.80
2023-12-27T21:19:17.437Z,9.80
2023-12-27T21:21:21.626Z,10.00
2023-12-27T21:23:24.551Z,9.90
2023-12-27T21:25:27.436Z,9.80
2023-12-27T21:27:30.072Z,9.70
2023-12-27T21:29:32.671Z,9.80
2023-12-27T21:31:35.466Z,9.80
2023-12-27T21:33:45.428Z,9.80
2023-12-27T21:35:49.742Z,9.80
2023-12-27T21:37:52.528Z,9.80
2023-12-27T21:39:55.264Z,9.80
2023-12-27T21:42:00.915Z,9.80
2023-12-27T21:44:03.752Z,9.70
2023-12-27T21:46:06.445Z,9.80
2023-12-27T21:48:11.886Z,9.90
2023-12-27T21:50:14.659Z,10.30
2023-12-27T21:52:17.623Z,9.90
2023-12-27T21:54:20.565Z,9.90
2023-12-27T21:56:24.052Z,9.90
2023-12-27T21:58:26.623Z,9.90
2023-12-27T22:00:31.817Z,10.00
2023-12-27T22:02:34.631Z,10.10
2023-12-27T22:04:37.296Z,10.10
2023-12-27T22:06:40.089Z,10.10
2023-12-27T22:08:43.538Z,10.10
2023-12-27T22:10:46.452Z,10.10
2023-12-27T22:12:49.118Z,10.20
2023-12-27T22:14:51.687Z,10.10
2023-12-27T22:16:54.277Z,10.10
2023-12-27T22:18:57.049Z,10.10
2023-12-27T22:20:59.879Z,10.10
2023-12-27T22:23:02.933Z,10.20
2023-12-27T22:25:06.658Z,10.20
2023-12-27T22:27:09.394Z,10.30
2023-12-27T22:29:12.741Z,10.20
2023-12-27T22:31:21.646Z,10.40
2023-12-27T22:33:24.566Z,10.30
2023-12-27T22:35:27.312Z,10.40
2023-12-27T22:37:32.243Z,10.30
2023-12-27T22:39:34.933Z,10.40
2023-12-27T22:41:39.652Z,10.40
2023-12-27T22:43:44.244Z,10.40
2023-12-27T22:45:50.827Z,10.40
2023-12-27T22:47:54.601Z,10.50
2023-12-27T22:49:58.328Z,10.50
2023-12-27T22:52:01.325Z,10.40
2023-12-27T22:54:04.330Z,10.30
2023-12-27T22:56:08.115Z,10.30
2023-12-27T22:58:11.500Z,10.10
2023-12-27T23:00:19.075Z,10.00
2023-12-27T23:02:22.592Z,9.80
2023-12-27T23:04:26.326Z,9.70
2023-12-27T23:06:29.852Z,9.60
2023-12-27T23:08:32.705Z,9.60
2023-12-27T23:10:35.657Z,9.50
2023-12-27T23:12:38.552Z,9.40
2023-12-27T23:14:41.508Z,9.50
2023-12-27T23:16:44.167Z,9.50
2023-12-27T23:18:46.896Z,9.40
2023-12-27T23:20:49.753Z,9.40
2023-12-27T23:22:52.400Z,9.40
2023-12-27T23:24:55.229Z,9.40
2023-12-27T23:26:57.953Z,9.30
2023-12-27T23:29:02.311Z,9.20
2023-12-27T23:31:07.136Z,9.20
2023-12-27T23:33:13.561Z,9.10
2023-12-27T23:35:18.031Z,9.10
2023-12-27T23:37:21.212Z,9.10
2023-12-27T23:39:24.229Z,9.10
2023-12-27T23:41:27.294Z,9.10
2023-12-27T23:43:30.776Z,9.10
2023-12-27T23:45:33.368Z,9.20
2023-12-27T23:47:36.275Z,9.30
2023-12-27T23:49:39.036Z,9.30
2023-12-27T23:51:42.028Z,9.30
2023-12-27T23:53:44.612Z,9.30
2023-12-27T23:55:47.297Z,9.20
2023-12-27T23:57:50.031Z,9.20
2023-12-27T23:59:52.680Z,9.20
